createdAt,value
2019-06-27T00:00:28.870Z,97963.08
2019-06-27T00:02:56.809Z,97962.88
2019-06-27T00:05:24.959Z,97964.44
2019-06-27T00:07:52.945Z,97957.98
2019-06-27T00:10:20.912Z,97962.88
2019-06-27T00:12:48.750Z,97957.18
2019-06-27T00:15:16.712Z,97958.91
2019-06-27T00:17:44.588Z,97958.92
2019-06-27T00:20:12.372Z,97955.62
2019-06-27T00:22:41.295Z,97964.40
2019-06-27T00:25:09.560Z,97959.11
2019-06-27T00:27:37.646Z,97960.48
2019-06-27T00:30:05.571Z,97960.89
2019-06-27T00:32:33.527Z,97963.02
2019-06-27T00:35:01.556Z,97962.79
2019-06-27T00:37:29.670Z,97962.79
2019-06-27T00:39:57.695Z,97964.16
2019-06-27T00:42:25.735Z,97974.16
2019-06-27T00:44:53.573Z,97971.60
2019-06-27T00:47:21.676Z,97970.23
2019-06-27T00:49:49.587Z,97970.80
2019-06-27T00:52:17.503Z,97978.83
2019-06-27T00:54:45.306Z,97981.80
2019-06-27T00:57:14.676Z,97976.31
2019-06-27T00:59:42.900Z,97980.38
2019-06-27T01:02:11.118Z,97975.48
2019-06-27T01:04:38.986Z,97973.91
2019-06-27T01:07:06.996Z,97975.46
2019-06-27T01:09:35.188Z,97972.92
2019-06-27T01:12:03.068Z,97967.26
2019-06-27T01:14:30.984Z,97975.84
2019-06-27T01:16:58.914Z,97975.84
2019-06-27T01:19:26.858Z,97974.25
2019-06-27T01:21:54.742Z,97976.22
2019-06-27T01:24:22.701Z,97981.08
2019-06-27T01:26:50.597Z,97974.25
2019-06-27T01:29:18.372Z,97973.67
2019-06-27T01:31:46.285Z,97977.54
2019-06-27T01:34:14.312Z,97978.34
2019-06-27T01:36:42.264Z,97977.95
2019-06-27T01:39:10.131Z,97980.70
2019-06-27T01:41:37.930Z,97983.63
2019-06-27T01:44:08.700Z,97982.63
2019-06-27T01:46:36.726Z,97984.57
2019-06-27T01:49:04.732Z,97979.66
2019-06-27T01:51:32.657Z,97986.49
2019-06-27T01:54:00.676Z,97989.00
2019-06-27T01:56:28.513Z,97988.66
2019-06-27T01:58:56.378Z,97982.96
2019-06-27T02:01:24.350Z,97979.43
2019-06-27T02:03:52.552Z,97985.47
2019-06-27T02:06:20.504Z,97987.06
2019-06-27T02:08:48.417Z,97984.85
2019-06-27T02:11:16.222Z,97980.75
2019-06-27T02:13:44.411Z,97983.09
2019-06-27T02:16:12.409Z,97985.08
2019-06-27T02:18:40.396Z,97987.20
2019-06-27T02:21:08.242Z,97984.28
2019-06-27T02:23:36.140Z,97985.65
2019-06-27T02:26:03.978Z,97983.11
2019-06-27T02:28:31.898Z,97991.49
2019-06-27T02:31:00.031Z,97988.19
2019-06-27T02:33:27.995Z,97987.95
2019-06-27T02:35:55.907Z,97987.57
2019-06-27T02:38:23.745Z,97982.86
2019-06-27T02:40:51.766Z,97983.84
2019-06-27T02:43:19.746Z,97982.05
2019-06-27T02:45:47.638Z,97980.48
2019-06-27T02:48:15.712Z,97979.13
2019-06-27T02:50:43.852Z,97981.48
2019-06-27T02:53:11.753Z,97893.77
2019-06-27T02:55:39.536Z,97981.86
2019-06-27T02:58:27.748Z,97894.74
2019-06-27T03:00:37.256Z,97979.69
2019-06-27T03:03:05.323Z,97983.97
2019-06-27T03:05:33.424Z,97991.58
2019-06-27T03:08:01.427Z,97987.27
2019-06-27T03:10:29.455Z,97980.62
2019-06-27T03:12:57.282Z,97982.00
2019-06-27T03:15:25.243Z,97981.23
2019-06-27T03:17:53.178Z,97982.00
2019-06-27T03:20:21.078Z,97975.97
2019-06-27T03:22:48.998Z,97980.27
2019-06-27T03:25:16.921Z,97982.00
2019-06-27T03:27:44.867Z,97986.11
2019-06-27T03:30:12.822Z,97975.91
2019-06-27T03:32:40.832Z,97980.24
2019-06-27T03:35:08.734Z,97982.98
2019-06-27T03:37:36.699Z,97977.70
2019-06-27T03:40:05.225Z,97972.80
2019-06-27T03:42:33.200Z,97971.62
2019-06-27T03:45:01.501Z,97968.88
2019-06-27T03:47:29.446Z,97967.32
2019-06-27T03:49:57.318Z,97970.62
2019-06-27T03:52:25.117Z,97965.53
2019-06-27T03:54:53.150Z,97969.08
2019-06-27T03:57:21.353Z,97972.79
2019-06-27T03:59:49.333Z,97972.56
2019-06-27T04:02:17.347Z,97977.66
2019-06-27T04:04:45.328Z,97970.62
2019-06-27T04:07:13.254Z,97978.83
2019-06-27T04:09:41.137Z,97982.36
2019-06-27T04:12:09.616Z,97979.40
2019-06-27T04:14:37.790Z,97973.73
2019-06-27T04:17:05.923Z,97982.13
2019-06-27T04:19:33.983Z,97987.20
2019-06-27T04:22:02.038Z,97975.90
2019-06-27T04:24:29.808Z,97986.61
2019-06-27T04:26:58.251Z,97929.98
2019-06-27T04:29:33.290Z,97979.58
2019-06-27T04:31:55.944Z,97978.78
2019-06-27T04:34:23.847Z,97970.58
2019-06-27T04:36:51.985Z,97972.17
2019-06-27T04:39:20.341Z,97974.91
2019-06-27T04:41:48.440Z,97974.11
2019-06-27T04:44:16.592Z,97976.42
2019-06-27T04:46:44.553Z,97972.94
2019-06-27T04:49:13.760Z,97970.58
2019-06-27T04:51:42.007Z,97977.22
2019-06-27T04:54:10.123Z,97973.11
2019-06-27T04:56:38.105Z,97977.59
2019-06-27T04:59:06.144Z,97974.48
2019-06-27T05:01:34.135Z,97973.11
2019-06-27T05:04:01.907Z,97972.92
2019-06-27T05:06:30.236Z,97970.38
2019-06-27T05:08:58.133Z,97966.48
2019-06-27T05:11:26.040Z,97966.48
2019-06-27T05:13:54.028Z,97963.37
2019-06-27T05:16:22.018Z,97960.81
2019-06-27T05:18:49.879Z,97958.50
2019-06-27T05:21:17.791Z,97962.38
2019-06-27T05:23:45.648Z,97961.80
2019-06-27T05:26:13.723Z,97964.91
2019-06-27T05:28:41.750Z,97965.11
2019-06-27T05:31:09.716Z,97967.22
2019-06-27T05:33:37.679Z,97964.72
2019-06-27T05:36:05.866Z,97970.75
2019-06-27T05:38:33.958Z,97969.02
2019-06-27T05:41:01.880Z,97968.06
2019-06-27T05:43:29.648Z,97968.22
2019-06-27T05:45:57.430Z,97967.27
2019-06-27T05:48:25.546Z,97969.63
2019-06-27T05:50:53.328Z,97971.17
2019-06-27T05:53:21.200Z,97970.88
2019-06-27T05:55:49.118Z,97975.15
2019-06-27T05:58:17.132Z,97966.95
2019-06-27T06:00:45.065Z,97969.50
2019-06-27T06:03:13.170Z,97961.88
2019-06-27T06:05:40.945Z,97969.08
2019-06-27T06:08:08.865Z,97970.45
2019-06-27T06:10:36.913Z,97973.60
2019-06-27T06:13:05.296Z,97977.52
2019-06-27T06:15:33.356Z,97978.28
2019-06-27T06:18:01.276Z,97975.39
2019-06-27T06:20:29.757Z,97983.22
2019-06-27T06:22:57.853Z,97982.60
2019-06-27T06:25:25.615Z,97983.42
2019-06-27T06:27:53.658Z,97980.48
2019-06-27T06:30:21.575Z,97987.09
2019-06-27T06:32:49.614Z,97985.34
2019-06-27T06:35:17.575Z,97984.97
2019-06-27T06:37:45.644Z,97991.20
2019-06-27T06:40:13.843Z,98000.38
2019-06-27T06:42:41.862Z,98018.05
2019-06-27T06:45:09.793Z,98021.33
2019-06-27T06:47:37.592Z,98015.68
2019-06-27T06:50:05.542Z,98018.59
2019-06-27T06:52:33.442Z,98022.00
2019-06-27T06:55:01.793Z,98015.29
2019-06-27T06:57:30.011Z,98017.23
2019-06-27T06:59:58.088Z,98018.17
2019-06-27T07:02:26.077Z,98019.22
2019-06-27T07:04:54.005Z,98016.67
2019-06-27T07:07:21.906Z,98011.63
2019-06-27T07:09:49.897Z,98016.73
2019-06-27T07:12:17.805Z,98015.26
2019-06-27T07:14:45.725Z,98019.66
2019-06-27T07:17:13.755Z,98020.55
2019-06-27T07:19:41.962Z,98015.26
2019-06-27T07:22:09.976Z,98013.89
2019-06-27T07:24:37.865Z,98016.40
2019-06-27T07:27:05.766Z,98015.08
2019-06-27T07:29:33.660Z,98021.59
2019-06-27T07:32:01.486Z,98023.40
2019-06-27T07:34:29.536Z,98026.51
2019-06-27T07:36:57.365Z,98025.09
2019-06-27T07:39:25.394Z,98021.59
2019-06-27T07:41:53.328Z,98024.72
2019-06-27T07:44:21.239Z,98022.20
2019-06-27T07:46:49.097Z,98024.19
2019-06-27T07:49:17.556Z,98021.48
2019-06-27T07:51:45.689Z,98023.83
2019-06-27T07:54:13.485Z,98022.89
2019-06-27T07:56:41.287Z,98028.16
2019-06-27T07:59:09.446Z,98024.20
2019-06-27T08:01:37.271Z,98020.53
2019-06-27T08:04:05.279Z,98024.45
2019-06-27T08:06:33.228Z,98030.34
2019-06-27T08:09:01.106Z,98025.69
2019-06-27T08:11:29.274Z,98019.59
2019-06-27T08:13:57.231Z,98023.52
2019-06-27T08:16:25.279Z,98026.48
2019-06-27T08:18:53.334Z,98022.81
2019-06-27T08:21:21.376Z,98028.52
2019-06-27T08:23:49.280Z,98029.66
2019-06-27T08:26:17.289Z,98029.84
2019-06-27T08:28:45.290Z,98031.83
2019-06-27T08:31:13.193Z,98028.33
2019-06-27T08:33:41.305Z,98032.63
2019-06-27T08:36:09.233Z,98032.44
2019-06-27T08:38:37.178Z,98033.81
2019-06-27T08:41:04.954Z,98030.08
2019-06-27T08:43:32.868Z,98025.21
2019-06-27T08:46:00.768Z,98026.33
2019-06-27T08:48:28.757Z,98026.11
2019-06-27T08:50:56.932Z,98028.38
2019-06-27T08:53:24.942Z,98031.12
2019-06-27T08:55:53.192Z,98029.18
2019-06-27T08:58:21.192Z,98024.17
2019-06-27T09:00:49.009Z,98032.30
2019-06-27T09:03:17.394Z,98030.17
2019-06-27T09:05:45.328Z,98028.00
2019-06-27T09:08:13.371Z,98025.22
2019-06-27T09:10:41.402Z,98027.58
2019-06-27T09:13:09.451Z,98025.22
2019-06-27T09:15:37.421Z,98026.02
2019-06-27T09:18:05.604Z,98027.59
2019-06-27T09:20:33.493Z,98032.11
2019-06-27T09:23:01.508Z,98034.47
2019-06-27T09:25:29.608Z,98042.34
2019-06-27T09:27:57.618Z,98044.42
2019-06-27T09:30:25.558Z,98036.22
2019-06-27T09:32:53.435Z,98032.30
2019-06-27T09:35:21.352Z,98032.38
2019-06-27T09:37:49.383Z,98034.36
2019-06-27T09:40:17.275Z,98034.55
2019-06-27T09:42:45.108Z,98033.56
2019-06-27T09:45:13.052Z,98031.62
2019-06-27T09:47:40.815Z,98028.47
2019-06-27T09:50:08.731Z,98024.36
2019-06-27T09:52:36.661Z,98024.58
2019-06-27T09:55:04.599Z,98026.15
2019-06-27T09:57:32.832Z,98022.42
2019-06-27T10:00:00.598Z,98015.39
2019-06-27T10:02:40.979Z,98012.70
2019-06-27T10:04:58.171Z,98006.42
2019-06-27T10:07:26.174Z,98005.66
2019-06-27T10:09:54.172Z,98006.05
2019-06-27T10:12:21.952Z,98003.11
2019-06-27T10:14:50.131Z,98001.94
2019-06-27T10:17:18.098Z,98003.72
2019-06-27T10:19:46.078Z,98001.18
2019-06-27T10:22:13.846Z,98001.38
2019-06-27T10:24:41.732Z,97996.31
2019-06-27T10:27:09.665Z,97989.05
2019-06-27T10:29:37.470Z,97996.73
2019-06-27T10:32:05.483Z,97989.89
2019-06-27T10:34:33.771Z,97991.86
2019-06-27T10:37:02.083Z,97998.11
2019-06-27T10:39:29.919Z,97996.73
2019-06-27T10:41:58.034Z,97994.98
2019-06-27T10:44:26.349Z,97996.16
2019-06-27T10:46:54.236Z,97996.97
2019-06-27T10:49:22.216Z,97984.83
2019-06-27T10:51:50.109Z,97986.62
2019-06-27T10:54:18.120Z,97987.80
2019-06-27T10:56:46.004Z,97983.50
2019-06-27T10:59:14.025Z,97984.27
2019-06-27T11:02:01.253Z,97980.23
2019-06-27T11:04:29.403Z,97978.44
2019-06-27T11:06:57.182Z,97978.86
2019-06-27T11:09:24.979Z,97982.36
2019-06-27T11:11:53.399Z,97982.17
2019-06-27T11:14:21.288Z,97978.70
2019-06-27T11:16:49.091Z,97969.53
2019-06-27T11:19:17.354Z,97977.30
2019-06-27T11:21:45.279Z,97966.19
2019-06-27T11:24:13.552Z,97962.27
2019-06-27T11:26:41.646Z,97968.92
2019-06-27T11:29:28.595Z,97961.47
2019-06-27T11:31:56.731Z,97956.80
2019-06-27T11:34:24.724Z,97959.11
2019-06-27T11:36:53.014Z,97950.70
2019-06-27T11:39:23.222Z,97948.98
2019-06-27T11:44:37.909Z,97949.56
2019-06-27T11:47:05.730Z,97943.51
2019-06-27T11:49:33.569Z,97941.75
2019-06-27T11:52:01.556Z,97938.41
2019-06-27T11:57:02.843Z,97932.94
2019-06-27T11:59:30.856Z,97927.45
2019-06-27T12:01:58.632Z,97933.38
2019-06-27T12:04:45.672Z,97930.06
2019-06-27T12:07:13.666Z,97931.43
2019-06-27T12:09:41.615Z,97927.73
2019-06-27T12:12:09.489Z,97928.53
2019-06-27T12:14:37.452Z,97922.86
2019-06-27T12:17:05.356Z,97917.77
2019-06-27T12:22:06.701Z,97922.09
2019-06-27T12:24:34.655Z,97916.44
2019-06-27T12:27:02.522Z,97917.40
2019-06-27T12:29:49.579Z,97920.14
2019-06-27T12:35:04.656Z,97914.68
2019-06-27T12:37:51.575Z,97915.06
2019-06-27T12:40:19.495Z,97912.34
2019-06-27T12:42:47.487Z,97912.16
2019-06-27T12:45:15.466Z,97909.80
2019-06-27T12:50:17.240Z,97907.08
2019-06-27T12:55:19.229Z,97902.56
2019-06-27T12:57:47.029Z,97898.88
2019-06-27T13:00:14.818Z,97896.93
2019-06-27T13:02:42.699Z,97896.33
2019-06-27T13:05:10.684Z,97893.56
2019-06-27T13:07:38.675Z,97894.55
2019-06-27T13:10:07.323Z,97890.25
2019-06-27T13:12:35.280Z,97890.25
2019-06-27T13:15:03.564Z,97892.63
2019-06-27T13:17:31.397Z,97891.26
2019-06-27T13:19:59.266Z,97892.63
2019-06-27T13:22:27.576Z,97888.52
2019-06-27T13:24:55.488Z,97880.48
2019-06-27T13:27:23.399Z,97880.30
2019-06-27T13:29:51.355Z,97876.97
2019-06-27T13:32:19.251Z,97875.98
2019-06-27T13:34:47.747Z,97874.80
2019-06-27T13:37:16.086Z,97881.66
2019-06-27T13:39:44.069Z,97874.41
2019-06-27T13:42:11.899Z,97875.02
2019-06-27T13:44:39.772Z,97870.30
2019-06-27T13:47:26.710Z,97869.53
2019-06-27T13:49:54.745Z,97873.64
2019-06-27T13:52:41.840Z,97866.78
2019-06-27T13:55:10.184Z,97873.86
2019-06-27T13:57:38.124Z,97872.87
2019-06-27T14:00:06.331Z,97870.12
2019-06-27T14:02:34.109Z,97859.34
2019-06-27T14:05:02.167Z,97859.97
2019-06-27T14:07:30.055Z,97863.67
2019-06-27T14:12:45.048Z,97865.67
2019-06-27T14:17:59.857Z,97842.38
2019-06-27T14:20:28.023Z,97855.30
2019-06-27T14:22:55.968Z,97855.30
2019-06-27T14:25:24.191Z,97861.36
2019-06-27T14:28:11.091Z,97856.67
2019-06-27T14:30:58.222Z,97849.80
2019-06-27T14:33:45.200Z,97850.39
2019-06-27T14:36:13.244Z,97855.69
2019-06-27T14:39:00.341Z,97845.70
2019-06-27T14:41:28.354Z,97849.04
2019-06-27T14:43:56.414Z,97845.48
2019-06-27T14:46:24.343Z,97842.55
2019-06-27T14:48:52.240Z,97846.88
2019-06-27T14:51:20.478Z,97843.74
2019-06-27T14:53:48.365Z,97841.20
2019-06-27T14:56:16.243Z,97831.61
2019-06-27T14:58:44.479Z,97825.34
2019-06-27T15:01:31.439Z,97828.07
2019-06-27T15:03:59.639Z,97822.97
2019-06-27T15:06:27.651Z,97825.16
2019-06-27T15:08:55.535Z,97822.58
2019-06-27T15:11:23.347Z,97825.55
2019-06-27T15:13:51.243Z,97819.84
2019-06-27T15:16:38.061Z,97818.28
2019-06-27T15:19:25.033Z,97821.21
2019-06-27T15:21:52.801Z,97814.36
2019-06-27T15:26:54.180Z,97820.25
2019-06-27T15:31:56.008Z,97818.69
2019-06-27T15:34:43.014Z,97824.75
2019-06-27T15:39:44.821Z,97818.50
2019-06-27T15:42:12.909Z,97819.08
2019-06-27T15:47:14.349Z,97817.89
2019-06-27T15:49:42.417Z,97814.39
2019-06-27T15:52:10.382Z,97809.28
2019-06-27T15:54:57.535Z,97814.95
2019-06-27T15:57:25.310Z,97814.00
2019-06-27T15:59:53.146Z,97808.30
2019-06-27T16:02:21.121Z,97809.48
2019-06-27T16:04:49.395Z,97809.88
2019-06-27T16:07:36.468Z,97814.59
2019-06-27T16:10:04.367Z,97814.16
2019-06-27T16:12:32.320Z,97809.28
2019-06-27T16:15:00.200Z,97808.68
2019-06-27T16:17:47.163Z,97808.49
2019-06-27T16:20:15.038Z,97805.36
2019-06-27T16:22:43.030Z,97805.95
2019-06-27T16:25:11.348Z,97802.62
2019-06-27T16:27:39.415Z,97803.98
2019-06-27T16:30:07.493Z,97798.88
2019-06-27T16:35:22.333Z,97797.13
2019-06-27T16:37:50.236Z,97797.33
2019-06-27T16:40:18.168Z,97802.80
2019-06-27T16:43:05.121Z,97801.64
2019-06-27T16:45:52.200Z,97799.30
2019-06-27T16:48:20.023Z,97800.86
2019-06-27T16:50:47.966Z,97796.33
2019-06-27T16:53:16.020Z,97803.59
2019-06-27T16:55:43.858Z,97809.27
2019-06-27T16:58:11.802Z,97799.09
2019-06-27T17:00:39.572Z,97812.42
2019-06-27T17:03:07.533Z,97810.45
2019-06-27T17:05:35.440Z,97813.59
2019-06-27T17:08:03.507Z,97810.44
2019-06-27T17:10:31.522Z,97817.30
2019-06-27T17:12:59.447Z,97819.06
2019-06-27T17:15:27.401Z,97818.28
2019-06-27T17:17:55.486Z,97817.91
2019-06-27T17:20:23.286Z,97824.36
2019-06-27T17:22:51.519Z,97827.09
2019-06-27T17:25:19.368Z,97826.72
2019-06-27T17:27:47.254Z,97824.19
2019-06-27T17:30:16.468Z,97826.13
2019-06-27T17:32:44.502Z,97826.70
2019-06-27T17:35:12.473Z,97833.38
2019-06-27T17:37:40.619Z,97836.91
2019-06-27T17:40:10.061Z,97839.05
2019-06-27T17:42:38.323Z,97844.33
2019-06-27T17:45:07.333Z,97839.45
2019-06-27T17:47:36.342Z,97841.02
2019-06-27T17:50:04.399Z,97839.84
2019-06-27T17:52:32.334Z,97849.23
2019-06-27T17:55:00.198Z,97842.77
2019-06-27T17:57:28.096Z,97845.52
2019-06-27T17:59:55.876Z,97843.55
2019-06-27T18:02:23.772Z,97844.92
2019-06-27T18:04:51.757Z,97848.45
2019-06-27T18:07:19.709Z,97849.63
2019-06-27T18:09:47.672Z,97846.70
2019-06-27T18:12:15.551Z,97852.78
2019-06-27T18:14:43.717Z,97858.64
2019-06-27T18:17:11.801Z,97855.11
2019-06-27T18:19:39.779Z,97862.95
2019-06-27T18:22:07.730Z,97860.59
2019-06-27T18:24:35.944Z,97858.23
2019-06-27T18:27:03.844Z,97860.77
2019-06-27T18:29:31.973Z,97874.48
2019-06-27T18:31:59.881Z,97865.66
2019-06-27T18:34:28.024Z,97866.45
2019-06-27T18:36:55.988Z,97865.86
2019-06-27T18:39:24.023Z,97869.97
2019-06-27T18:41:51.954Z,97870.38
2019-06-27T18:44:20.261Z,97872.53
2019-06-27T18:46:48.038Z,97873.70
2019-06-27T18:49:15.864Z,97872.91
2019-06-27T18:51:43.827Z,97872.91
2019-06-27T18:54:11.700Z,97881.14
2019-06-27T18:56:39.618Z,97876.98
2019-06-27T18:59:07.694Z,97869.56
2019-06-27T19:01:35.577Z,97876.02
2019-06-27T19:04:03.572Z,97876.79
2019-06-27T19:06:31.492Z,97878.73
2019-06-27T19:08:59.709Z,97880.71
2019-06-27T19:11:27.726Z,97880.11
2019-06-27T19:13:55.769Z,97882.86
2019-06-27T19:16:23.713Z,97889.11
2019-06-27T19:18:55.632Z,97894.77
2019-06-27T19:21:37.811Z,97898.69
2019-06-27T19:24:23.282Z,97907.87
2019-06-27T19:26:52.114Z,97903.38
2019-06-27T19:29:20.114Z,97912.17
2019-06-27T19:31:48.021Z,97910.02
2019-06-27T19:34:15.824Z,97919.00
2019-06-27T19:36:43.748Z,97920.59
2019-06-27T19:39:11.903Z,97919.00
2019-06-27T19:41:39.797Z,97924.68
2019-06-27T19:44:08.032Z,97922.33
2019-06-27T19:46:35.896Z,97926.82
2019-06-27T19:49:03.774Z,97928.00
2019-06-27T19:51:31.874Z,97931.12
2019-06-27T19:53:59.638Z,97931.70
2019-06-27T19:56:27.411Z,97935.21
2019-06-27T19:58:55.174Z,97938.14
2019-06-27T20:01:23.388Z,97937.57
2019-06-27T20:03:51.274Z,97942.06
2019-06-27T20:06:19.166Z,97945.56
2019-06-27T20:08:47.062Z,97946.17
2019-06-27T20:11:15.036Z,97953.41
2019-06-27T20:13:43.088Z,97957.89
2019-06-27T20:16:11.028Z,97957.30
2019-06-27T20:18:39.076Z,97955.55
2019-06-27T20:21:06.998Z,97966.09
2019-06-27T20:23:34.994Z,97961.41
2019-06-27T20:26:03.988Z,97958.63
2019-06-27T20:28:31.930Z,97962.17
2019-06-27T20:30:59.992Z,97961.56
2019-06-27T20:33:28.017Z,97962.14
2019-06-27T20:35:55.816Z,97965.87
2019-06-27T20:38:34.448Z,97967.17
2019-06-27T20:40:53.555Z,97966.03
2019-06-27T20:43:21.715Z,97969.91
2019-06-27T20:45:49.690Z,97971.89
2019-06-27T20:48:18.371Z,97972.27
2019-06-27T20:50:46.266Z,97978.12
2019-06-27T20:53:14.202Z,97980.48
2019-06-27T20:55:42.017Z,97983.80
2019-06-27T20:58:10.061Z,97987.11
2019-06-27T21:00:37.977Z,97985.74
2019-06-27T21:03:05.837Z,97986.92
2019-06-27T21:05:33.961Z,97987.30
2019-06-27T21:08:01.990Z,97991.22
2019-06-27T21:10:29.892Z,97988.06
2019-06-27T21:12:57.842Z,97986.50
2019-06-27T21:15:25.662Z,97994.91
2019-06-27T21:17:53.570Z,97991.76
2019-06-27T21:20:21.414Z,97986.28
2019-06-27T21:22:49.535Z,97992.94
2019-06-27T21:25:17.814Z,97998.41
2019-06-27T21:27:45.622Z,97996.85
2019-06-27T21:30:13.823Z,97992.70
2019-06-27T21:32:41.768Z,97999.17
2019-06-27T21:35:09.714Z,97994.08
2019-06-27T21:37:37.740Z,98001.72
2019-06-27T21:40:05.674Z,98009.36
2019-06-27T21:42:33.595Z,98002.67
2019-06-27T21:45:01.594Z,98008.75
2019-06-27T21:47:30.261Z,98010.50
2019-06-27T21:49:58.474Z,98013.05
2019-06-27T21:52:26.547Z,98022.61
2019-06-27T21:54:54.934Z,98017.13
2019-06-27T21:57:22.990Z,98011.45
2019-06-27T21:59:51.038Z,98007.73
2019-06-27T22:02:18.802Z,98007.53
2019-06-27T22:04:46.731Z,98015.95
2019-06-27T22:07:14.708Z,98011.03
2019-06-27T22:09:42.680Z,98012.78
2019-06-27T22:12:10.677Z,98002.81
2019-06-27T22:14:39.043Z,98011.03
2019-06-27T22:17:06.822Z,98007.69
2019-06-27T22:19:34.908Z,98005.33
2019-06-27T22:22:02.859Z,98003.96
2019-06-27T22:24:30.889Z,98011.98
2019-06-27T22:26:58.747Z,98015.52
2019-06-27T22:29:26.896Z,98012.78
2019-06-27T22:31:54.946Z,98008.83
2019-06-27T22:34:22.880Z,98016.09
2019-06-27T22:36:51.007Z,98017.27
2019-06-27T22:39:40.779Z,98014.11
2019-06-27T22:42:24.179Z,98007.45
2019-06-27T22:45:10.201Z,98013.91
2019-06-27T22:47:55.899Z,98002.97
2019-06-27T22:50:35.450Z,98000.80
2019-06-27T22:53:08.804Z,98003.50
2019-06-27T22:55:37.060Z,98011.34
2019-06-27T22:58:05.411Z,98002.13
2019-06-27T23:00:33.461Z,98004.71
2019-06-27T23:03:01.622Z,98002.92
2019-06-27T23:05:29.547Z,98002.13
2019-06-27T23:07:57.417Z,98006.23
2019-06-27T23:10:25.190Z,98004.87
2019-06-27T23:12:53.056Z,98004.67
2019-06-27T23:15:20.852Z,98005.66
2019-06-27T23:17:48.846Z,98007.59
2019-06-27T23:20:16.648Z,98008.97
2019-06-27T23:22:44.463Z,98006.23
2019-06-27T23:25:12.449Z,98005.84
2019-06-27T23:27:41.262Z,98002.50
2019-06-27T23:30:09.378Z,98009.73
2019-06-27T23:32:37.315Z,98006.98
2019-06-27T23:35:05.209Z,98008.74
2019-06-27T23:37:33.468Z,98010.30
2019-06-27T23:40:13.581Z,98008.92
2019-06-27T23:42:33.266Z,98003.26
2019-06-27T23:45:01.278Z,98007.36
2019-06-27T23:47:29.610Z,98007.56
2019-06-27T23:49:57.588Z,98008.16
2019-06-27T23:52:25.595Z,98005.42
2019-06-27T23:54:53.494Z,98003.64
2019-06-27T23:57:21.364Z,98007.17
2019-06-27T23:59:49.229Z,98005.80
